CPX417 Details

Departure: Sacramento International Airport (KSMF)
Arrival: Chicago/Rockford International Airport (KRFD) at N/A
Route: SCTWN2 RALEY INSLO DTA DBL J60 IOW PLL
Notes:


Current Weather Information
KSMF 230653Z 34006KT 10SM CLR 18/07 A3001 RMK AO2 SLP163 T01780067
KRFD 230654Z 22008KT 10SM CLR 06/00 A2982 RMK AO2 SLP101 T00560000